Time;durP1;ratioP1;P1;durP2;ratioP2;P2;SDS_P1;SDS_P2;PMS_P1;PMS_P2;Temp;Humidity;BMP_temperature;BMP_pressure;BME280_temperature;BME280_humidity;BME280_pressure;Samples;Min_cycle;Max_cycle;Signal;HPM_P1;HPM_P2
2023/01/28 00:01:45;;;;;;;38.88;19.15;;;5.70;99.90;;;;;;4923413;29;20032;-91
2023/01/28 00:04:12;;;;;;;27.88;17.73;;;5.70;99.90;;;;;;4924928;29;20063;-94
2023/01/28 00:06:39;;;;;;;31.33;17.92;;;5.70;99.90;;;;;;4924319;29;20028;-92
2023/01/28 00:09:06;;;;;;;36.33;20.13;;;5.80;99.90;;;;;;4923140;29;20497;-92
2023/01/28 00:11:33;;;;;;;36.47;20.75;;;5.80;99.90;;;;;;4923985;29;20035;-91
2023/01/28 00:14:00;;;;;;;31.50;17.95;;;5.80;99.90;;;;;;4924830;29;20024;-91
2023/01/28 00:16:27;;;;;;;29.67;17.92;;;5.80;99.90;;;;;;4923851;29;20165;-91
2023/01/28 00:18:57;;;;;;;32.95;17.60;;;5.90;99.90;;;;;;4925064;29;20024;-94
2023/01/28 00:21:25;;;;;;;30.67;17.55;;;5.90;99.90;;;;;;4908379;29;20064;-92
2023/01/28 00:23:56;;;;;;;29.67;18.10;;;5.90;99.90;;;;;;4923327;29;20031;-92
2023/01/28 00:26:26;;;;;;;30.50;18.00;;;5.90;99.90;;;;;;4908380;29;20374;-92
2023/01/28 00:28:57;;;;;;;29.58;17.15;;;5.80;99.90;;;;;;4922657;29;20039;-93
2023/01/28 00:31:34;;;;;;;30.05;17.20;;;5.80;99.90;;;;;;4906801;29;20028;-92
2023/01/28 00:34:06;;;;;;;28.85;16.67;;;5.80;99.90;;;;;;4907728;29;20149;-93
2023/01/28 00:36:38;;;;;;;28.17;16.27;;;5.80;99.90;;;;;;4923496;29;20040;-91
2023/01/28 00:39:16;;;;;;;26.33;15.77;;;5.80;99.90;;;;;;4923791;29;20389;-91
2023/01/28 00:41:43;;;;;;;25.73;15.30;;;5.80;99.90;;;;;;4923206;29;20031;-91
2023/01/28 00:44:10;;;;;;;28.33;16.20;;;5.70;99.90;;;;;;4927422;29;20043;-90
2023/01/28 00:46:40;;;;;;;27.33;16.75;;;5.70;99.90;;;;;;4928434;29;20028;-92
2023/01/28 00:49:10;;;;;;;33.05;16.40;;;5.70;99.90;;;;;;4926165;29;20036;-92
2023/01/28 00:51:37;;;;;;;26.80;16.13;;;5.60;99.90;;;;;;4924430;29;20035;-92
2023/01/28 00:54:05;;;;;;;26.02;15.02;;;5.60;99.90;;;;;;4922994;29;20028;-92
2023/01/28 00:56:37;;;;;;;29.77;16.02;;;5.60;99.90;;;;;;4922596;29;20020;-92
2023/01/28 00:59:12;;;;;;;25.20;15.80;;;5.60;99.90;;;;;;4923671;29;20032;-91
2023/01/28 01:01:43;;;;;;;28.40;16.23;;;5.60;99.90;;;;;;4923903;29;20035;-94
2023/01/28 01:04:11;;;;;;;27.42;15.77;;;5.50;99.90;;;;;;4903869;29;20047;-91
2023/01/28 01:06:39;;;;;;;31.60;17.00;;;5.50;99.90;;;;;;4922621;29;20075;-92
2023/01/28 01:09:10;;;;;;;28.38;16.50;;;5.50;99.90;;;;;;4923455;29;20044;-91
2023/01/28 01:11:37;;;;;;;27.67;15.95;;;5.50;99.90;;;;;;4922511;29;20477;-92
2023/01/28 01:14:05;;;;;;;24.83;14.63;;;5.50;99.90;;;;;;4921923;29;20047;-91
2023/01/28 01:16:34;;;;;;;25.30;14.10;;;5.50;99.90;;;;;;4921992;29;20080;-93
2023/01/28 01:19:03;;;;;;;26.08;13.93;;;5.60;99.90;;;;;;4921917;29;20027;-93
2023/01/28 01:21:30;;;;;;;25.08;13.98;;;5.60;99.90;;;;;;4921884;29;20034;-93
2023/01/28 01:24:00;;;;;;;25.80;13.50;;;5.60;99.90;;;;;;4922327;29;20487;-91
2023/01/28 01:26:26;;;;;;;22.77;13.75;;;5.50;99.90;;;;;;4922621;29;20024;-91
2023/01/28 01:28:53;;;;;;;25.65;12.70;;;5.40;99.90;;;;;;4922266;29;20562;-92
2023/01/28 01:31:21;;;;;;;27.48;13.27;;;5.40;99.90;;;;;;4921520;29;20055;-92
2023/01/28 01:33:50;;;;;;;22.00;12.20;;;5.50;99.90;;;;;;4921809;29;20023;-92
2023/01/28 01:36:20;;;;;;;23.58;11.45;;;5.60;99.90;;;;;;4921452;29;20074;-92
2023/01/28 01:38:51;;;;;;;21.38;10.15;;;5.60;99.90;;;;;;4921725;29;20020;-92
2023/01/28 01:41:32;;;;;;;18.83;10.73;;;5.70;99.90;;;;;;4921140;29;20115;-91
2023/01/28 01:44:04;;;;;;;26.27;11.50;;;5.70;99.90;;;;;;4921609;29;20036;-92
2023/01/28 01:46:39;;;;;;;24.33;12.23;;;5.70;99.90;;;;;;4921514;29;20035;-94
2023/01/28 01:49:26;;;;;;;23.75;10.88;;;5.70;99.90;;;;;;4921591;29;20034;-91
2023/01/28 01:52:08;;;;;;;20.13;10.05;;;5.70;99.90;;;;;;4921931;29;20074;-92
2023/01/28 01:54:40;;;;;;;21.13;10.80;;;5.80;99.90;;;;;;4921612;29;20034;-92
2023/01/28 01:57:12;;;;;;;19.27;10.13;;;5.80;99.90;;;;;;4902964;29;20039;-91
2023/01/28 01:59:41;;;;;;;18.60;9.13;;;5.90;99.90;;;;;;4918365;29;20036;-90
2023/01/28 02:02:10;;;;;;;16.42;9.52;;;5.90;99.90;;;;;;4902608;29;20039;-91
2023/01/28 02:04:41;;;;;;;16.23;9.48;;;6.00;99.90;;;;;;4918250;29;20486;-93
2023/01/28 02:07:11;;;;;;;18.48;9.93;;;6.00;99.90;;;;;;4918267;29;20032;-92
2023/01/28 02:09:40;;;;;;;20.63;9.13;;;5.90;99.90;;;;;;4911340;29;20493;-92
2023/01/28 02:12:19;;;;;;;18.35;8.70;;;5.90;99.90;;;;;;4905753;29;20059;-90
2023/01/28 02:15:04;;;;;;;15.50;8.48;;;5.90;99.90;;;;;;4905344;29;20027;-92
2023/01/28 02:17:31;;;;;;;16.65;9.43;;;5.90;99.90;;;;;;4938974;29;20086;-91
2023/01/28 02:20:08;;;;;;;16.27;8.45;;;5.90;99.90;;;;;;4902041;29;20032;-94
2023/01/28 02:23:21;;;;;;;16.48;8.68;;;5.90;99.90;;;;;;4903213;29;20044;-91
2023/01/28 06:29:12;;;;;;;14.68;9.65;;;7.10;99.90;;;;;;6061884;23;21024;-91
2023/01/28 06:31:39;;;;;;;21.92;9.30;;;7.10;99.90;;;;;;4904895;29;20491;-93
2023/01/28 06:34:05;;;;;;;21.75;9.95;;;7.20;99.90;;;;;;4906323;29;20027;-91
2023/01/28 06:36:32;;;;;;;15.18;10.05;;;7.30;99.90;;;;;;4904933;29;20055;-90
2023/01/28 06:41:34;;;;;;;16.40;9.75;;;7.50;99.90;;;;;;5211226;23;20097;-91
2023/01/28 08:48:27;;;;;;;21.17;19.38;;;11.80;99.90;;;;;;4972333;28;20038;-93
2023/01/28 08:50:59;;;;;;;21.55;19.60;;;12.00;99.90;;;;;;4945519;28;20039;-94
2023/01/28 08:53:36;;;;;;;20.45;18.90;;;12.10;99.90;;;;;;4994576;23;20043;-92
2023/01/28 08:56:09;;;;;;;20.80;19.08;;;12.30;99.90;;;;;;4962772;28;20127;-93
2023/01/28 08:58:36;;;;;;;20.65;18.92;;;12.50;99.90;;;;;;4979387;28;20031;-93
2023/01/28 09:01:06;;;;;;;19.50;17.90;;;12.40;99.90;;;;;;4966657;28;20023;-92
2023/01/28 09:03:44;;;;;;;21.48;19.60;;;12.50;99.90;;;;;;4964908;28;20030;-93
2023/01/28 09:06:11;;;;;;;21.33;19.27;;;12.40;99.90;;;;;;4978700;28;20074;-92
2023/01/28 09:08:38;;;;;;;22.15;20.10;;;12.30;99.90;;;;;;4978573;28;20023;-92
2023/01/28 09:11:04;;;;;;;20.30;18.33;;;12.00;99.90;;;;;;4978639;28;20131;-92
2023/01/28 09:13:31;;;;;;;19.85;18.30;;;11.70;99.90;;;;;;4979648;28;20030;-92
2023/01/28 09:15:58;;;;;;;19.52;18.13;;;11.60;99.90;;;;;;4979751;28;20018;-93
2023/01/28 09:18:27;;;;;;;20.58;18.88;;;11.80;99.90;;;;;;4960261;29;20038;-92
2023/01/28 09:23:48;;;;;;;19.27;17.98;;;11.60;99.90;;;;;;4979196;23;20143;-92
2023/01/28 09:26:33;;;;;;;;;;;;;;;;;;;;;
2023/01/28 09:29:17;;;;;;;19.30;17.80;;;11.20;99.90;;;;;;4986835;28;20035;-93
2023/01/28 09:32:07;;;;;;;18.02;16.63;;;10.90;99.90;;;;;;4966870;29;20031;-92
2023/01/28 09:34:37;;;;;;;18.23;16.75;;;10.90;99.90;;;;;;4966564;29;20035;-93
2023/01/28 09:37:06;;;;;;;18.20;16.65;;;10.90;99.90;;;;;;4957214;29;20024;-91
2023/01/28 09:39:36;;;;;;;17.83;16.52;;;10.90;99.90;;;;;;4961778;29;20036;-92
2023/01/28 09:42:22;;;;;;;20.45;18.88;;;11.10;99.90;;;;;;4945265;29;20030;-92
2023/01/28 09:45:19;;;;;;;19.38;18.17;;;11.50;99.90;;;;;;4974695;28;20054;-92
2023/01/28 09:47:53;;;;;;;20.45;19.05;;;11.80;99.90;;;;;;4967104;29;20039;-92
2023/01/28 09:50:37;;;;;;;20.52;19.02;;;11.90;99.90;;;;;;4982336;28;20050;-92
2023/01/28 09:53:22;;;;;;;21.52;19.83;;;11.90;99.90;;;;;;4982180;28;20130;-91
2023/01/28 09:55:55;;;;;;;20.27;18.70;;;11.90;99.90;;;;;;4976063;28;20032;-91
2023/01/28 09:58:28;;;;;;;20.87;19.47;;;11.90;99.90;;;;;;4962444;28;20043;-92
2023/01/28 10:01:44;;;;;;;20.48;19.02;;;12.00;99.90;;;;;;4961923;28;20096;-91
2023/01/28 10:04:51;;;;;;;20.50;19.10;;;12.00;99.90;;;;;;4962275;28;20063;-93
2023/01/28 10:07:30;;;;;;;21.60;19.67;;;12.10;99.90;;;;;;4962135;28;20044;-95
2023/01/28 10:13:05;;;;;;;22.23;20.55;;;12.40;99.90;;;;;;4935604;29;20047;-90
2023/01/28 10:15:59;;;;;;;21.85;20.35;;;12.40;99.90;;;;;;4899078;29;20044;-89
2023/01/28 10:19:06;;;;;;;22.00;20.50;;;12.50;99.90;;;;;;4921260;29;20064;-91
2023/01/28 10:21:42;;;;;;;22.48;20.63;;;12.70;99.90;;;;;;4921043;29;20075;-92
2023/01/28 10:24:14;;;;;;;22.15;20.50;;;12.80;99.90;;;;;;4920717;29;20043;-90
2023/01/28 10:26:47;;;;;;;23.02;21.33;;;13.10;99.90;;;;;;4924229;29;20067;-94
2023/01/28 10:29:21;;;;;;;23.48;21.63;;;13.50;99.90;;;;;;4924288;29;20031;-92
2023/01/28 10:32:29;;;;;;;23.23;21.50;;;13.60;99.90;;;;;;4921747;29;20047;-92
2023/01/28 10:35:05;;;;;;;24.05;21.83;;;13.30;99.90;;;;;;4899524;29;20033;-90
2023/01/28 10:37:35;;;;;;;23.92;21.85;;;13.20;99.90;;;;;;4883612;29;20044;-93
2023/01/28 10:40:04;;;;;;;22.50;21.00;;;12.80;99.90;;;;;;4883338;29;20036;-92
2023/01/28 10:42:37;;;;;;;22.77;20.90;;;12.50;99.90;;;;;;4883098;29;20041;-90
2023/01/28 10:45:41;;;;;;;22.48;20.85;;;12.70;99.90;;;;;;4882835;29;20083;-91
2023/01/28 10:48:19;;;;;;;23.25;21.40;;;13.10;99.90;;;;;;4883918;29;20036;-94
2023/01/28 10:51:13;;;;;;;22.33;20.63;;;13.00;99.90;;;;;;4883056;29;20041;-93
2023/01/28 10:53:52;;;;;;;21.98;20.48;;;12.70;99.90;;;;;;4882561;29;20036;-93
2023/01/28 10:56:34;;;;;;;22.08;20.58;;;12.50;99.90;;;;;;4898677;29;20147;-90
2023/01/28 10:59:05;;;;;;;21.70;20.00;;;12.70;99.90;;;;;;4882916;29;20036;-91
2023/01/28 11:01:50;;;;;;;21.90;20.40;;;13.10;99.90;;;;;;4882324;29;20032;-93
2023/01/28 11:04:18;;;;;;;;;;;13.20;99.90;;;;;;4883068;29;20041;-90
2023/01/28 11:06:58;;;;;;;21.17;19.77;;;13.30;99.90;;;;;;4882163;29;19908;-92
2023/01/28 11:09:35;;;;;;;23.05;21.15;;;13.30;99.90;;;;;;4881680;29;20047;-92
2023/01/28 11:12:21;;;;;;;23.55;21.65;;;13.20;99.90;;;;;;4919287;29;20512;-93
2023/01/28 11:15:00;;;;;;;21.50;19.75;;;13.00;99.90;;;;;;4905624;29;20037;-95
2023/01/28 11:17:37;;;;;;;21.98;20.40;;;13.10;99.90;;;;;;4923617;29;20481;-92
2023/01/28 11:20:36;;;;;;;23.63;21.60;;;12.80;99.90;;;;;;4904859;29;20040;-91
2023/01/28 11:23:03;;;;;;;21.02;19.63;;;12.60;99.90;;;;;;4851296;29;20048;-92
2023/01/28 11:25:35;;;;;;;21.15;19.67;;;12.60;99.90;;;;;;4851336;29;20124;-90
2023/01/28 11:28:14;;;;;;;19.63;18.23;;;12.90;99.90;;;;;;4851766;29;20041;-90
2023/01/28 11:30:41;;;;;;;17.88;16.67;;;12.90;99.90;;;;;;4862886;29;20044;-90
2023/01/28 11:33:30;;;;;;;19.25;17.40;;;12.80;99.90;;;;;;4866715;29;20081;-92
2023/01/28 11:36:06;;;;;;;19.50;18.00;;;12.50;99.90;;;;;;4882039;29;20029;-92
2023/01/28 11:38:33;;;;;;;19.30;17.90;;;12.50;99.90;;;;;;4866489;29;20029;-90
2023/01/28 11:41:01;;;;;;;18.40;16.98;;;12.70;99.90;;;;;;4866373;29;20437;-92
2023/01/28 11:43:31;;;;;;;18.60;17.20;;;12.80;99.90;;;;;;4866834;29;20029;-93
2023/01/28 11:46:13;;;;;;;19.27;17.58;;;12.80;99.90;;;;;;4867170;29;20571;-90
2023/01/28 11:49:04;;;;;;;18.20;17.00;;;12.80;99.90;;;;;;4882802;29;20052;-91
2023/01/28 11:51:44;;;;;;;19.05;17.42;;;12.40;99.90;;;;;;4874057;29;20048;-89
2023/01/28 11:54:50;;;;;;;20.00;18.33;;;12.20;99.90;;;;;;4885714;29;20051;-93
2023/01/28 11:57:34;;;;;;;19.48;17.90;;;12.10;99.90;;;;;;4795525;29;20191;-89
2023/01/28 12:00:25;;;;;;;19.42;18.13;;;12.10;99.90;;;;;;4819579;29;20085;-90
2023/01/28 12:03:15;;;;;;;19.00;17.58;;;12.10;99.90;;;;;;4848280;29;20487;-90
2023/01/28 12:05:53;;;;;;;18.95;17.55;;;12.10;99.90;;;;;;4827894;29;20053;-91
2023/01/28 12:26:40;;;;;;;19.30;18.00;;;12.50;99.90;;;;;;4966665;28;20062;-92
2023/01/28 12:29:46;;;;;;;20.40;18.67;;;12.20;99.90;;;;;;4967882;28;20027;-92
2023/01/28 12:32:30;;;;;;;19.27;17.60;;;12.10;99.90;;;;;;4982884;28;20031;-92
2023/01/28 12:35:18;;;;;;;19.73;18.17;;;12.00;99.90;;;;;;4982681;28;20032;-92
2023/01/28 12:38:25;;;;;;;18.83;17.52;;;12.00;99.90;;;;;;4967281;28;20038;-93
2023/01/28 12:41:12;;;;;;;19.13;17.65;;;12.10;99.90;;;;;;4894170;29;20037;-93
2023/01/28 12:43:56;;;;;;;19.25;17.52;;;12.40;99.90;;;;;;4894085;29;20029;-93
2023/01/28 12:46:38;;;;;;;19.23;17.65;;;12.50;99.90;;;;;;4892884;29;20044;-93
2023/01/28 12:49:39;;;;;;;18.42;17.17;;;12.60;99.90;;;;;;4889177;29;20043;-93
2023/01/28 12:52:36;;;;;;;18.98;17.75;;;12.70;99.90;;;;;;4883891;29;20051;-93
2023/01/28 12:55:19;;;;;;;19.10;17.80;;;12.70;99.90;;;;;;4892702;29;20136;-93
2023/01/28 13:01:06;;;;;;;19.25;18.05;;;12.70;99.90;;;;;;4905159;29;20028;-93
2023/01/28 13:04:13;;;;;;;19.80;18.40;;;12.40;99.90;;;;;;4892036;29;20036;-93
2023/01/28 13:06:45;;;;;;;20.60;19.02;;;12.10;99.90;;;;;;4885120;29;20053;-92
2023/01/28 13:09:33;;;;;;;20.40;18.90;;;12.00;99.90;;;;;;4874571;29;20101;-93
2023/01/28 13:25:52;;;;;;;19.90;18.23;;;12.40;99.90;;;;;;1485894;23;21674;-92
2023/01/28 13:28:37;;;;;;;19.75;18.35;;;12.20;99.90;;;;;;4946910;29;20055;-92
2023/01/28 13:31:22;;;;;;;19.98;18.40;;;12.10;99.90;;;;;;4928740;29;20055;-92
2023/01/28 13:33:55;;;;;;;19.25;17.83;;;12.00;99.90;;;;;;4922508;29;20083;-92
2023/01/28 13:40:24;;;;;;;19.30;17.90;;;11.90;99.90;;;;;;4839801;29;20643;-92
2023/01/28 13:43:05;;;;;;;20.15;18.48;;;12.20;99.90;;;;;;4844457;29;20085;-93
2023/01/28 13:45:33;;;;;;;19.48;18.17;;;12.00;99.90;;;;;;4844077;29;20456;-93
2023/01/28 13:48:14;;;;;;;20.08;18.63;;;12.00;99.90;;;;;;4844322;29;20053;-92
2023/01/28 13:50:46;;;;;;;20.23;18.60;;;12.00;99.90;;;;;;4844374;29;20055;-92
2023/01/28 13:53:44;;;;;;;19.77;18.42;;;12.00;99.90;;;;;;4844062;29;20082;-91
2023/01/28 13:56:24;;;;;;;19.48;18.17;;;12.00;99.90;;;;;;4847649;29;20120;-92
2023/01/28 13:59:33;;;;;;;20.80;19.15;;;11.90;99.90;;;;;;4841453;29;20038;-93
2023/01/28 14:02:21;;;;;;;20.77;19.13;;;11.90;99.90;;;;;;4788788;29;20047;-92
2023/01/28 14:05:19;;;;;;;20.35;18.92;;;11.90;99.90;;;;;;4804448;29;20054;-91
2023/01/28 14:11:43;;;;;;;19.95;18.45;;;11.80;99.90;;;;;;4966555;28;20058;-93
2023/01/28 14:14:22;;;;;;;20.63;19.08;;;11.80;99.90;;;;;;4942548;29;20031;-90
2023/01/28 14:17:43;;;;;;;21.20;19.60;;;11.70;99.90;;;;;;4929921;29;20024;-92
2023/01/28 14:21:40;;;;;;;20.65;19.15;;;11.80;99.90;;;;;;4835494;29;20072;-92
2023/01/28 14:24:32;;;;;;;19.92;18.63;;;11.70;99.90;;;;;;4809964;29;20054;-93
2023/01/28 14:34:23;;;;;;;20.25;18.45;;;11.70;99.90;;;;;;5750017;23;20061;-91
2023/01/28 14:37:03;;;;;;;19.95;18.48;;;11.60;99.90;;;;;;5538903;23;20030;-92
2023/01/28 14:57:32;;;;;;;21.35;19.75;;;11.40;99.90;;;;;;5089038;23;20029;-94
2023/01/28 15:04:29;;;;;;;20.90;19.40;;;11.30;99.90;;;;;;4890855;29;20052;-91
2023/01/28 15:07:16;;;;;;;21.10;19.40;;;11.20;99.90;;;;;;5452467;23;21749;-91
2023/01/28 15:10:06;;;;;;;20.92;19.52;;;11.20;99.90;;;;;;4948232;28;20043;-92
2023/01/28 15:22:00;;;;;;;21.42;19.75;;;10.80;99.90;;;;;;5747056;23;20054;-92
2023/01/28 16:26:28;;;;;;;28.60;26.10;;;9.30;99.90;;;;;;5388220;23;20046;-92
2023/01/28 16:28:55;;;;;;;30.50;27.10;;;9.30;99.90;;;;;;4965252;28;20431;-93
2023/01/28 16:31:22;;;;;;;30.95;27.73;;;9.20;99.90;;;;;;4965106;28;20101;-94
2023/01/28 16:33:48;;;;;;;31.48;28.15;;;9.10;99.90;;;;;;4964475;28;20026;-91
2023/01/28 16:36:18;;;;;;;31.73;28.45;;;9.10;99.90;;;;;;4961361;28;20038;-92
2023/01/28 16:38:45;;;;;;;33.22;29.75;;;9.00;99.90;;;;;;4977089;28;20113;-92
2023/01/28 16:41:27;;;;;;;32.58;27.83;;;9.00;99.90;;;;;;4961468;28;20027;-92
2023/01/28 16:44:04;;;;;;;32.20;28.65;;;8.90;99.90;;;;;;4979098;28;20101;-93
2023/01/28 16:46:35;;;;;;;34.22;30.63;;;8.90;99.90;;;;;;4961913;28;20039;-92
2023/01/28 16:49:02;;;;;;;32.70;29.45;;;8.90;99.90;;;;;;4960838;28;20031;-92
2023/01/28 16:51:29;;;;;;;31.23;28.23;;;8.80;99.90;;;;;;4960170;28;20030;-92
2023/01/28 16:53:57;;;;;;;34.53;29.48;;;8.80;99.90;;;;;;4976938;28;20085;-92
2023/01/28 16:56:26;;;;;;;35.95;31.05;;;8.80;99.90;;;;;;4960736;28;20489;-92
2023/01/28 16:58:53;;;;;;;50.72;36.45;;;8.80;99.90;;;;;;4961140;28;20035;-93
2023/01/28 17:01:19;;;;;;;33.75;30.25;;;8.70;99.90;;;;;;4963237;28;20066;-92
2023/01/28 17:04:09;;;;;;;31.73;28.63;;;8.70;99.90;;;;;;5013511;23;20051;-92
2023/01/28 17:06:41;;;;;;;32.97;29.55;;;8.70;99.90;;;;;;4961448;29;20066;-93
2023/01/28 17:09:30;;;;;;;31.08;28.02;;;8.60;99.90;;;;;;4977912;28;20039;-92
2023/01/28 17:12:06;;;;;;;32.15;29.05;;;8.60;99.90;;;;;;4975104;28;20027;-93
2023/01/28 17:15:06;;;;;;;32.22;28.88;;;8.60;99.90;;;;;;4977605;28;20027;-92
2023/01/28 17:31:44;;;;;;;29.83;26.80;;;8.40;99.90;;;;;;5102581;23;20054;-94
2023/01/28 17:34:11;;;;;;;29.02;26.33;;;8.30;99.90;;;;;;4967778;28;20038;-93
2023/01/28 17:36:47;;;;;;;28.58;26.08;;;8.30;99.90;;;;;;4962448;28;20027;-92
2023/01/28 17:59:14;;;;;;;31.63;28.50;;;8.10;99.90;;;;;;4378830;23;21585;-93
2023/01/28 18:01:48;;;;;;;31.67;28.48;;;8.10;99.90;;;;;;4901461;29;20064;-92
2023/01/28 18:05:04;;;;;;;32.65;29.15;;;8.10;99.90;;;;;;4942664;23;20493;-92
2023/01/28 18:08:16;;;;;;;34.80;31.02;;;8.10;99.90;;;;;;4903783;29;20036;-92
2023/01/28 18:13:58;;;;;;;35.78;30.45;;;8.10;99.90;;;;;;5000950;23;20051;-93
2023/01/28 18:21:23;;;;;;;;;;;;;;;;;;;;;
2023/01/28 18:25:05;;;;;;;31.08;28.08;;;8.00;99.90;;;;;;5093197;23;20046;-92
2023/01/28 18:27:57;;;;;;;35.80;31.80;;;8.00;99.90;;;;;;5081119;23;20065;-92
2023/01/28 18:31:19;;;;;;;39.75;35.35;;;7.90;99.90;;;;;;5071204;23;20039;-92
2023/01/28 18:33:59;;;;;;;32.58;29.13;;;7.90;99.90;;;;;;4946012;29;20066;-92
2023/01/28 18:42:18;;;;;;;35.22;31.65;;;7.80;99.90;;;;;;4935547;29;20490;-91
2023/01/28 18:44:51;;;;;;;33.95;30.40;;;7.80;99.90;;;;;;4922103;29;20405;-92
2023/01/28 18:47:34;;;;;;;32.55;29.20;;;7.80;99.90;;;;;;4942150;29;20086;-93
2023/01/28 18:50:11;;;;;;;37.97;32.22;;;7.70;99.90;;;;;;4942316;29;20437;-93
2023/01/28 18:52:38;;;;;;;41.20;34.70;;;7.60;99.90;;;;;;4939931;29;20035;-91
2023/01/28 18:55:08;;;;;;;35.97;31.75;;;7.60;99.90;;;;;;4940572;29;20105;-92
2023/01/28 19:15:13;;;;;;;39.95;35.17;;;7.60;99.90;;;;;;4973338;28;20051;-93
2023/01/28 19:20:16;;;;;;;39.72;34.35;;;7.60;99.90;;;;;;4935490;29;20060;-92
2023/01/28 19:22:42;;;;;;;36.67;31.77;;;7.50;99.90;;;;;;4921598;29;20035;-92
2023/01/28 19:25:11;;;;;;;40.83;32.78;;;7.60;99.90;;;;;;4917173;29;20126;-93
2023/01/28 19:27:38;;;;;;;34.28;30.65;;;7.60;99.90;;;;;;4920728;29;20036;-92
2023/01/28 19:30:08;;;;;;;42.25;32.00;;;7.60;99.90;;;;;;4917117;29;20111;-92
2023/01/28 19:32:35;;;;;;;40.65;33.28;;;7.50;99.90;;;;;;4934118;29;20039;-91
2023/01/28 19:35:30;;;;;;;37.67;32.65;;;7.60;99.90;;;;;;4920080;29;20028;-93
2023/01/28 19:41:33;;;;;;;34.95;30.70;;;7.50;99.90;;;;;;5083542;23;20146;-92
2023/01/28 19:44:11;;;;;;;35.25;30.90;;;7.50;99.90;;;;;;4944006;29;20039;-92
2023/01/28 19:46:48;;;;;;;41.38;33.25;;;7.60;99.90;;;;;;4959897;29;20115;-93
2023/01/28 19:49:17;;;;;;;33.70;30.02;;;7.60;99.90;;;;;;4941061;29;20031;-93
2023/01/28 19:51:44;;;;;;;37.60;31.98;;;7.60;99.90;;;;;;4943776;29;20035;-92
2023/01/28 20:00:13;;;;;;;39.22;30.65;;;7.60;99.90;;;;;;4972471;28;20047;-91
2023/01/28 20:02:40;;;;;;;35.13;31.33;;;7.60;99.90;;;;;;4939151;29;20031;-91
2023/01/28 20:05:09;;;;;;;33.53;29.90;;;7.60;99.90;;;;;;4957743;29;20031;-92
2023/01/28 20:07:35;;;;;;;33.20;29.80;;;7.60;99.90;;;;;;4938825;29;20027;-92
2023/01/28 20:10:17;;;;;;;34.22;30.63;;;7.60;99.90;;;;;;4939457;29;20086;-94
2023/01/28 20:13:12;;;;;;;;;;;;;;;;;;;;;
2023/01/28 20:16:31;;;;;;;31.23;28.17;;;7.50;99.90;;;;;;5052622;23;20051;-90
2023/01/28 20:19:00;;;;;;;35.00;29.67;;;7.50;99.90;;;;;;4961135;28;20058;-93
2023/01/28 20:21:28;;;;;;;33.08;29.55;;;7.50;99.90;;;;;;4961776;28;20037;-91
2023/01/28 20:23:57;;;;;;;32.60;28.50;;;7.60;99.90;;;;;;4961100;28;20117;-92
2023/01/28 20:26:30;;;;;;;32.58;28.92;;;7.50;99.90;;;;;;4960798;28;20044;-94
2023/01/28 20:29:10;;;;;;;31.80;28.58;;;7.60;99.90;;;;;;4961221;28;20457;-92
2023/01/28 20:31:55;;;;;;;30.73;27.40;;;7.50;99.90;;;;;;4963769;28;20035;-93
2023/01/28 20:34:21;;;;;;;31.00;27.70;;;7.60;99.90;;;;;;4960921;28;20027;-91
2023/01/28 20:36:53;;;;;;;30.70;27.50;;;7.60;99.90;;;;;;4976699;28;20058;-91
2023/01/28 20:39:19;;;;;;;31.13;27.88;;;7.50;99.90;;;;;;4960611;28;20031;-91
2023/01/28 20:41:46;;;;;;;30.48;27.35;;;7.60;99.90;;;;;;4961235;28;20082;-91
2023/01/28 20:44:12;;;;;;;31.17;26.88;;;7.50;99.90;;;;;;4960806;28;20026;-92
2023/01/28 20:46:40;;;;;;;31.42;28.23;;;7.50;99.90;;;;;;4960422;28;20492;-91
2023/01/28 20:49:09;;;;;;;32.83;28.98;;;7.60;99.90;;;;;;4960540;28;20030;-91
2023/01/28 20:51:37;;;;;;;34.20;28.63;;;7.60;99.90;;;;;;4960275;28;20039;-91
2023/01/28 20:54:04;;;;;;;31.92;27.70;;;7.50;99.90;;;;;;4960673;28;20031;-93
2023/01/28 20:56:33;;;;;;;31.15;27.83;;;7.40;99.90;;;;;;4960198;28;20397;-92
2023/01/28 20:59:03;;;;;;;36.67;30.27;;;7.40;99.90;;;;;;4960295;28;20022;-92
2023/01/28 21:01:33;;;;;;;53.63;35.20;;;7.40;99.90;;;;;;4976150;28;20042;-90
2023/01/28 21:03:59;;;;;;;30.27;27.20;;;7.40;99.90;;;;;;4956502;28;20081;-93
2023/01/28 21:06:27;;;;;;;31.15;27.35;;;7.50;99.90;;;;;;4972744;28;20043;-91
2023/01/28 21:08:59;;;;;;;30.27;27.10;;;7.40;99.90;;;;;;4973490;28;20039;-92
2023/01/28 21:11:26;;;;;;;37.28;30.17;;;7.40;99.90;;;;;;4972923;28;20058;-93
2023/01/28 21:13:52;;;;;;;30.73;27.52;;;7.40;99.90;;;;;;4973047;28;20031;-92
2023/01/28 21:16:19;;;;;;;30.23;27.00;;;7.40;99.90;;;;;;4972556;28;20054;-92
2023/01/28 21:18:46;;;;;;;31.83;28.45;;;7.40;99.90;;;;;;4972822;28;20023;-92
2023/01/28 21:21:25;;;;;;;29.77;26.63;;;7.40;99.90;;;;;;4972676;28;20031;-91
2023/01/28 21:23:58;;;;;;;32.78;29.00;;;7.30;99.90;;;;;;4972750;28;20129;-91
2023/01/28 21:26:25;;;;;;;34.85;28.55;;;7.30;99.90;;;;;;4972550;28;20504;-91
2023/01/28 21:28:52;;;;;;;31.50;26.38;;;7.20;99.90;;;;;;4972458;28;20158;-92
2023/01/28 21:31:21;;;;;;;30.80;26.67;;;7.20;99.90;;;;;;4972583;28;20032;-93
2023/01/28 21:33:53;;;;;;;31.73;28.08;;;7.20;99.90;;;;;;4972508;28;20027;-91
2023/01/28 21:36:21;;;;;;;38.47;28.98;;;7.10;99.90;;;;;;4972251;28;20492;-91
2023/01/28 21:38:56;;;;;;;35.63;28.10;;;7.10;99.90;;;;;;4972624;28;20031;-91
2023/01/28 21:41:23;;;;;;;37.28;29.27;;;7.10;99.90;;;;;;4974803;28;20059;-91
2023/01/28 21:43:52;;;;;;;32.67;29.33;;;7.10;99.90;;;;;;4942940;28;20523;-93
2023/01/28 21:46:25;;;;;;;31.77;26.30;;;7.20;99.90;;;;;;4958421;28;20123;-91
2023/01/28 21:48:58;;;;;;;39.15;29.42;;;7.20;99.90;;;;;;4958488;28;20030;-91
2023/01/28 21:51:35;;;;;;;29.30;26.17;;;7.20;99.90;;;;;;4958443;28;20090;-92
2023/01/28 21:54:07;;;;;;;28.08;24.88;;;7.20;99.90;;;;;;4958241;28;20026;-90
2023/01/28 21:56:33;;;;;;;30.65;25.13;;;7.30;99.90;;;;;;4942481;28;20043;-91
2023/01/28 22:01:45;;;;;;;28.75;25.80;;;7.20;99.90;;;;;;4974502;28;20130;-91
2023/01/28 22:04:12;;;;;;;29.30;26.30;;;7.30;99.90;;;;;;4941998;28;20023;-92
2023/01/28 22:06:41;;;;;;;29.98;26.98;;;7.30;99.90;;;;;;4942252;28;20444;-93
2023/01/28 22:09:12;;;;;;;32.47;26.80;;;7.30;99.90;;;;;;4942391;28;20030;-92
2023/01/28 22:11:40;;;;;;;36.15;27.35;;;7.30;99.90;;;;;;4955853;29;20489;-90
2023/01/28 22:14:10;;;;;;;29.25;25.92;;;7.30;99.90;;;;;;4971515;28;20034;-91
2023/01/28 22:16:38;;;;;;;28.38;25.40;;;7.40;99.90;;;;;;4972484;28;20408;-91
2023/01/28 22:19:04;;;;;;;29.17;25.88;;;7.30;99.90;;;;;;4958858;28;20066;-91
2023/01/28 22:21:32;;;;;;;28.75;25.85;;;7.40;99.90;;;;;;4974673;28;20039;-90
2023/01/28 22:23:58;;;;;;;28.25;25.52;;;7.40;99.90;;;;;;4958630;28;20070;-91
2023/01/28 22:26:25;;;;;;;26.80;24.10;;;7.30;99.90;;;;;;4959486;28;20040;-91
2023/01/28 22:28:51;;;;;;;27.20;24.50;;;7.30;99.90;;;;;;4954958;28;20027;-91
2023/01/28 22:31:18;;;;;;;26.73;24.10;;;7.30;99.90;;;;;;4940809;29;20058;-92
2023/01/28 22:33:45;;;;;;;27.90;25.23;;;7.30;99.90;;;;;;4939444;29;20401;-90
2023/01/28 22:36:14;;;;;;;26.48;24.05;;;7.30;99.90;;;;;;4939281;29;20035;-90
2023/01/28 22:38:43;;;;;;;27.52;25.00;;;7.30;99.90;;;;;;4939552;29;20027;-92
2023/01/28 22:41:13;;;;;;;26.75;24.38;;;7.20;99.90;;;;;;4939311;29;20090;-92
2023/01/28 22:43:43;;;;;;;25.92;23.52;;;7.20;99.90;;;;;;4939301;29;20058;-91
2023/01/28 22:46:10;;;;;;;25.45;23.25;;;7.10;99.90;;;;;;4938884;29;20527;-90
2023/01/28 22:48:38;;;;;;;27.00;22.33;;;7.20;99.90;;;;;;4939037;29;20077;-91
2023/01/28 22:51:12;;;;;;;25.80;23.23;;;7.20;99.90;;;;;;4939357;29;20123;-91
2023/01/28 22:53:40;;;;;;;25.70;23.02;;;7.10;99.90;;;;;;4939427;29;20110;-91
2023/01/28 22:56:07;;;;;;;25.25;22.75;;;7.10;99.90;;;;;;4940468;29;20024;-92
2023/01/28 22:58:34;;;;;;;24.70;22.20;;;7.10;99.90;;;;;;4939198;29;20035;-90
2023/01/28 23:01:01;;;;;;;24.33;22.02;;;7.10;99.90;;;;;;4939389;29;20396;-93
2023/01/28 23:03:28;;;;;;;25.00;22.60;;;7.10;99.90;;;;;;4939105;29;20062;-91
2023/01/28 23:06:00;;;;;;;25.10;22.60;;;7.10;99.90;;;;;;4939935;29;20039;-91
2023/01/28 23:08:29;;;;;;;24.23;21.92;;;7.10;99.90;;;;;;4939619;29;20024;-91
2023/01/28 23:10:59;;;;;;;23.88;21.73;;;7.10;99.90;;;;;;4940969;29;20027;-91
2023/01/28 23:24:33;;;;;;;22.05;20.15;;;7.20;99.90;;;;;;4958806;28;20042;-92
2023/01/28 23:27:03;;;;;;;22.35;20.45;;;7.20;99.90;;;;;;4942820;29;20555;-91
2023/01/28 23:29:31;;;;;;;22.70;20.52;;;7.20;99.90;;;;;;4942718;29;20028;-91
2023/01/28 23:32:02;;;;;;;23.30;21.20;;;7.20;99.90;;;;;;4942603;29;20086;-92
2023/01/28 23:34:34;;;;;;;22.33;20.42;;;7.10;99.90;;;;;;4942948;29;20027;-91